Time;durP1;ratioP1;P1;durP2;ratioP2;P2;SDS_P1;SDS_P2;PMS_P1;PMS_P2;Temp;Humidity;BMP_temperature;BMP_pressure;BME280_temperature;BME280_humidity;BME280_pressure;Samples;Min_cycle;Max_cycle;Signal;HPM_P1;HPM_P2
2024/04/02 00:01:55;;;;;;;1.63;0.70;;;10.70;99.90;;;;;;5111219;28;20164;-75
2024/04/02 00:04:20;;;;;;;1.37;0.70;;;10.50;99.90;;;;;;5112324;28;20412;-75
2024/04/02 00:06:47;;;;;;;1.50;1.00;;;10.50;99.90;;;;;;5111052;28;20263;-75
2024/04/02 00:09:12;;;;;;;1.47;0.90;;;10.40;99.90;;;;;;5112139;28;20556;-75
2024/04/02 00:11:38;;;;;;;1.13;0.80;;;10.50;99.90;;;;;;5110979;28;20420;-76
2024/04/02 00:14:03;;;;;;;0.87;0.70;;;10.30;99.90;;;;;;5112571;28;20201;-75
2024/04/02 00:16:29;;;;;;;1.20;0.73;;;10.50;99.90;;;;;;5112221;28;20235;-75
2024/04/02 00:18:55;;;;;;;1.30;0.87;;;10.40;99.90;;;;;;5112211;28;20266;-75
2024/04/02 00:21:20;;;;;;;1.27;0.70;;;10.50;99.90;;;;;;5112279;28;20192;-74
2024/04/02 00:23:46;;;;;;;0.77;0.60;;;10.40;99.90;;;;;;5112378;28;20270;-73
2024/04/02 00:26:12;;;;;;;1.20;0.70;;;10.30;99.90;;;;;;5112191;28;20258;-73
2024/04/02 00:28:38;;;;;;;1.03;0.80;;;10.30;99.90;;;;;;5112167;28;20438;-74
2024/04/02 00:31:06;;;;;;;1.67;0.87;;;10.30;99.90;;;;;;5112099;28;20575;-74
2024/04/02 00:33:32;;;;;;;1.43;0.67;;;10.40;99.90;;;;;;5115618;28;20169;-75
2024/04/02 00:36:06;;;;;;;1.40;0.90;;;10.30;99.90;;;;;;5115847;28;20806;-73
2024/04/02 00:38:32;;;;;;;1.13;0.83;;;10.20;99.90;;;;;;5115830;27;20440;-75
2024/04/02 00:40:58;;;;;;;1.50;0.70;;;10.10;99.90;;;;;;5115835;28;20414;-74
2024/04/02 00:43:24;;;;;;;1.60;0.70;;;10.10;99.90;;;;;;5115803;28;20973;-73
2024/04/02 00:45:50;;;;;;;1.10;0.80;;;10.20;99.90;;;;;;5115717;28;20171;-74
2024/04/02 00:48:17;;;;;;;0.90;0.60;;;10.20;99.90;;;;;;5115569;28;20420;-74
2024/04/02 00:50:43;;;;;;;1.10;0.70;;;10.30;99.90;;;;;;5115694;28;20167;-74
2024/04/02 00:53:08;;;;;;;1.40;0.80;;;10.30;99.90;;;;;;5115704;27;20442;-74
2024/04/02 00:55:37;;;;;;;1.00;0.70;;;10.30;99.90;;;;;;5115579;28;20475;-75
2024/04/02 00:58:05;;;;;;;0.80;0.60;;;10.40;99.90;;;;;;5115609;28;20251;-74
2024/04/02 01:00:31;;;;;;;1.47;0.80;;;10.30;99.90;;;;;;5115850;28;20457;-74
2024/04/02 01:02:57;;;;;;;1.67;0.83;;;10.30;99.90;;;;;;5115629;28;20436;-74
2024/04/02 01:05:23;;;;;;;1.27;0.70;;;10.40;99.90;;;;;;5115995;28;20652;-74
2024/04/02 01:07:49;;;;;;;1.80;0.80;;;10.30;99.90;;;;;;5115687;28;20187;-75
2024/04/02 01:10:15;;;;;;;3.30;0.70;;;10.10;99.90;;;;;;5115777;28;20433;-74
2024/04/02 01:12:40;;;;;;;2.10;0.80;;;10.20;99.90;;;;;;5115293;28;20417;-74
2024/04/02 01:15:06;;;;;;;0.90;0.70;;;10.10;99.90;;;;;;5115446;28;20177;-73
2024/04/02 01:17:32;;;;;;;2.00;0.80;;;10.20;99.90;;;;;;5115039;28;20193;-74
2024/04/02 01:19:57;;;;;;;1.53;0.80;;;10.00;99.90;;;;;;5115089;28;20186;-74
2024/04/02 01:22:23;;;;;;;1.43;0.70;;;9.90;99.90;;;;;;5115186;28;20409;-73
2024/04/02 01:24:57;;;;;;;1.90;0.80;;;9.90;99.90;;;;;;5115009;28;20168;-73
2024/04/02 01:27:24;;;;;;;1.20;0.73;;;9.90;99.90;;;;;;5115007;28;20158;-74
2024/04/02 01:29:50;;;;;;;1.17;0.80;;;10.00;99.90;;;;;;5114869;28;20423;-74
2024/04/02 01:32:15;;;;;;;1.50;0.80;;;9.90;99.90;;;;;;5114760;28;20404;-73
2024/04/02 01:34:41;;;;;;;0.83;0.60;;;9.90;99.90;;;;;;5114873;28;20179;-74
2024/04/02 01:37:06;;;;;;;1.83;0.63;;;10.00;99.90;;;;;;5114695;28;20235;-74
2024/04/02 01:39:32;;;;;;;1.10;0.70;;;10.00;99.90;;;;;;5114758;28;20194;-75
2024/04/02 01:41:57;;;;;;;1.00;0.60;;;10.00;99.90;;;;;;5114685;28;20161;-74
2024/04/02 01:44:23;;;;;;;1.07;0.60;;;10.10;99.90;;;;;;5113951;28;20276;-74
2024/04/02 01:46:48;;;;;;;3.33;0.83;;;10.00;99.90;;;;;;5114655;28;20222;-74
2024/04/02 01:49:14;;;;;;;1.50;0.60;;;9.90;99.90;;;;;;5114512;28;20185;-74
2024/04/02 01:51:39;;;;;;;3.03;1.00;;;9.80;99.90;;;;;;5114569;28;20176;-74
2024/04/02 01:54:05;;;;;;;1.00;0.70;;;9.90;99.90;;;;;;5114523;28;20175;-74
2024/04/02 01:56:30;;;;;;;0.90;0.80;;;9.80;99.90;;;;;;5112995;28;20295;-74
2024/04/02 01:58:56;;;;;;;2.03;1.00;;;9.90;99.90;;;;;;5114257;28;20188;-73
2024/04/02 02:01:21;;;;;;;1.10;0.80;;;9.90;99.90;;;;;;5114350;28;20618;-74
2024/04/02 02:03:47;;;;;;;0.97;0.87;;;10.00;99.90;;;;;;5114424;28;20163;-74
2024/04/02 02:06:13;;;;;;;0.80;0.60;;;10.00;99.90;;;;;;5114250;28;20167;-74
2024/04/02 02:08:39;;;;;;;2.10;0.73;;;10.00;99.90;;;;;;5114045;28;20314;-74
2024/04/02 02:11:05;;;;;;;1.10;0.80;;;9.90;99.90;;;;;;5114236;28;20219;-74
2024/04/02 02:13:38;;;;;;;1.20;0.80;;;10.00;99.90;;;;;;5112836;28;20411;-74
2024/04/02 02:16:04;;;;;;;1.53;0.70;;;10.00;99.90;;;;;;5112820;28;20477;-74
2024/04/02 02:18:31;;;;;;;1.27;0.60;;;10.00;99.90;;;;;;5114140;28;20416;-74
2024/04/02 02:20:58;;;;;;;1.67;0.70;;;9.90;99.90;;;;;;5114294;28;20181;-74
2024/04/02 02:23:24;;;;;;;1.50;0.80;;;10.00;99.90;;;;;;5114004;28;20412;-75
2024/04/02 02:25:50;;;;;;;0.90;0.60;;;10.00;99.90;;;;;;5113922;27;20442;-75
2024/04/02 02:28:16;;;;;;;1.20;0.77;;;10.00;99.90;;;;;;5114064;28;20437;-74
2024/04/02 02:30:42;;;;;;;1.47;0.70;;;10.00;99.90;;;;;;5113876;28;20204;-74
2024/04/02 02:33:07;;;;;;;0.80;0.70;;;10.10;99.90;;;;;;5113709;28;20165;-74
2024/04/02 02:35:33;;;;;;;1.77;0.80;;;10.20;99.90;;;;;;5113753;28;20216;-74
2024/04/02 02:37:58;;;;;;;0.93;0.70;;;10.20;99.90;;;;;;5113565;28;20188;-74
2024/04/02 02:40:24;;;;;;;1.10;0.73;;;10.20;99.90;;;;;;5113582;28;20186;-74
2024/04/02 02:42:50;;;;;;;1.10;0.80;;;10.30;99.90;;;;;;5113611;27;20168;-74
2024/04/02 02:45:15;;;;;;;0.90;0.70;;;10.30;99.90;;;;;;5113737;28;20176;-74
2024/04/02 02:47:41;;;;;;;1.00;0.77;;;10.20;99.90;;;;;;5113379;28;20179;-74
2024/04/02 02:50:06;;;;;;;2.60;1.07;;;10.30;99.90;;;;;;5113174;28;20224;-75
2024/04/02 02:52:32;;;;;;;1.13;0.80;;;10.20;99.90;;;;;;5113445;28;20169;-73
2024/04/02 02:54:58;;;;;;;1.77;0.67;;;10.10;99.90;;;;;;5111952;28;20168;-73
2024/04/02 02:57:23;;;;;;;0.80;0.60;;;10.10;99.90;;;;;;5113405;28;20281;-74
2024/04/02 02:59:49;;;;;;;0.80;0.67;;;10.10;99.90;;;;;;5112000;28;20626;-74
2024/04/02 03:02:14;;;;;;;0.90;0.60;;;10.10;99.90;;;;;;5113225;28;20204;-74
2024/04/02 03:04:41;;;;;;;2.07;0.73;;;10.10;99.90;;;;;;5113082;28;20169;-74
2024/04/02 03:07:06;;;;;;;1.27;0.80;;;10.00;99.90;;;;;;5113055;28;20443;-74
2024/04/02 03:09:36;;;;;;;1.20;0.70;;;10.00;99.90;;;;;;5112956;28;20286;-74
2024/04/02 03:12:02;;;;;;;1.50;0.60;;;10.00;99.90;;;;;;5113098;28;20161;-74
2024/04/02 03:14:31;;;;;;;1.10;0.77;;;9.90;99.90;;;;;;5113051;28;20507;-74
2024/04/02 03:16:57;;;;;;;1.90;0.97;;;9.70;99.90;;;;;;5112840;28;20533;-73
2024/04/02 03:19:22;;;;;;;1.00;0.77;;;9.60;99.90;;;;;;5112876;28;20513;-73
2024/04/02 03:21:48;;;;;;;1.17;0.73;;;9.60;99.90;;;;;;5113150;28;20174;-73
2024/04/02 03:24:13;;;;;;;1.20;0.90;;;9.60;99.90;;;;;;5112897;28;20650;-75
2024/04/02 03:26:39;;;;;;;1.30;0.70;;;9.60;99.90;;;;;;5112946;28;20179;-74
2024/04/02 03:29:04;;;;;;;3.13;0.80;;;9.60;99.90;;;;;;5112662;28;20195;-74
2024/04/02 03:31:30;;;;;;;0.90;0.70;;;9.50;99.90;;;;;;5112738;28;20172;-75
2024/04/02 03:33:59;;;;;;;1.00;0.70;;;9.50;99.90;;;;;;5112620;28;20172;-74
2024/04/02 03:36:24;;;;;;;0.80;0.60;;;9.50;99.90;;;;;;5112612;28;20196;-74
2024/04/02 03:38:50;;;;;;;1.10;0.70;;;9.60;99.90;;;;;;5111304;28;20417;-74
2024/04/02 03:41:16;;;;;;;0.80;0.57;;;9.40;99.90;;;;;;5112695;28;20223;-74
2024/04/02 03:43:43;;;;;;;0.80;0.67;;;9.50;99.90;;;;;;5112698;28;20686;-73
2024/04/02 03:46:10;;;;;;;1.63;0.83;;;9.50;99.90;;;;;;5113241;28;20170;-73
2024/04/02 03:48:37;;;;;;;1.97;1.60;;;9.60;99.90;;;;;;5112466;28;20527;-75
2024/04/02 03:51:03;;;;;;;0.90;0.63;;;9.50;99.90;;;;;;5112487;28;20757;-74
2024/04/02 03:53:29;;;;;;;0.80;0.60;;;9.60;99.90;;;;;;5112423;28;20426;-74
2024/04/02 03:55:58;;;;;;;1.10;0.60;;;9.60;99.90;;;;;;5112432;28;20417;-72
2024/04/02 03:58:25;;;;;;;0.83;0.63;;;9.60;99.90;;;;;;5112680;28;20403;-74
2024/04/02 04:00:51;;;;;;;1.17;0.80;;;9.60;99.90;;;;;;5112472;28;20409;-73
2024/04/02 04:03:17;;;;;;;1.93;0.93;;;9.60;99.90;;;;;;5112530;28;20915;-74
2024/04/02 04:05:43;;;;;;;1.10;0.60;;;9.70;99.90;;;;;;5112541;28;20447;-74
2024/04/02 04:08:09;;;;;;;1.10;0.80;;;9.60;99.90;;;;;;5115240;28;20438;-75
2024/04/02 04:10:35;;;;;;;1.03;0.67;;;9.70;99.90;;;;;;5116339;28;20854;-74
2024/04/02 04:13:01;;;;;;;2.20;0.80;;;9.70;99.90;;;;;;5116578;28;20212;-74
2024/04/02 04:15:27;;;;;;;1.47;0.70;;;9.60;99.90;;;;;;5116340;28;20435;-74
2024/04/02 04:17:52;;;;;;;1.80;0.70;;;9.70;99.90;;;;;;5116276;28;20205;-74
2024/04/02 04:20:18;;;;;;;0.80;0.60;;;9.60;99.90;;;;;;5116148;28;20298;-74
2024/04/02 04:22:43;;;;;;;1.20;0.60;;;9.70;99.90;;;;;;5116233;28;20213;-75
2024/04/02 04:25:09;;;;;;;1.60;0.63;;;9.70;99.90;;;;;;5116201;28;20246;-74
2024/04/02 04:27:38;;;;;;;1.00;0.73;;;9.70;99.90;;;;;;5116124;27;20630;-74
2024/04/02 04:30:06;;;;;;;0.70;0.50;;;9.80;99.90;;;;;;5116255;28;20258;-75
2024/04/02 04:32:35;;;;;;;1.67;0.60;;;9.80;99.90;;;;;;5116081;28;20412;-75
2024/04/02 04:35:01;;;;;;;2.40;0.70;;;9.70;99.90;;;;;;5116298;28;20963;-75
2024/04/02 04:37:27;;;;;;;1.23;0.60;;;9.70;99.90;;;;;;5116034;28;20443;-75
2024/04/02 04:39:52;;;;;;;1.00;0.80;;;9.70;99.90;;;;;;5115922;28;20186;-75
2024/04/02 04:42:19;;;;;;;1.00;0.60;;;9.60;99.90;;;;;;5116042;28;20538;-75
2024/04/02 04:44:45;;;;;;;1.57;0.70;;;9.70;99.90;;;;;;5116105;28;20152;-74
2024/04/02 04:47:11;;;;;;;1.60;0.60;;;9.80;99.90;;;;;;5116289;28;20985;-75
2024/04/02 04:49:37;;;;;;;1.50;0.70;;;9.60;99.90;;;;;;5115911;28;20189;-74
2024/04/02 04:52:04;;;;;;;1.60;0.70;;;9.50;99.90;;;;;;5115969;28;20780;-74
2024/04/02 04:54:29;;;;;;;2.83;0.63;;;9.50;99.90;;;;;;5115845;28;20250;-75
2024/04/02 04:56:55;;;;;;;0.70;0.53;;;9.50;99.90;;;;;;5115974;28;20442;-74
2024/04/02 04:59:22;;;;;;;0.97;0.67;;;9.50;99.90;;;;;;5115882;28;20330;-75
2024/04/02 05:01:47;;;;;;;1.57;0.73;;;9.50;99.90;;;;;;5115503;28;20408;-74
2024/04/02 05:04:13;;;;;;;0.90;0.60;;;9.50;99.90;;;;;;5115499;28;20404;-74
2024/04/02 05:06:42;;;;;;;1.53;0.60;;;9.40;99.90;;;;;;5114461;28;20180;-75
2024/04/02 05:09:11;;;;;;;1.30;1.10;;;9.50;99.90;;;;;;5115235;28;20198;-74
2024/04/02 05:11:40;;;;;;;2.10;0.70;;;9.50;99.90;;;;;;5115645;28;20407;-74
2024/04/02 05:14:05;;;;;;;1.53;0.73;;;9.60;99.90;;;;;;5115351;28;20462;-74
2024/04/02 05:16:34;;;;;;;1.10;0.67;;;9.60;99.90;;;;;;5115258;28;20438;-74
2024/04/02 05:19:00;;;;;;;0.90;0.50;;;9.70;99.90;;;;;;5114025;28;20182;-75
2024/04/02 05:21:26;;;;;;;0.90;0.60;;;9.70;99.90;;;;;;5115158;28;20405;-73
2024/04/02 05:23:51;;;;;;;0.80;0.60;;;9.70;99.90;;;;;;5115006;28;20414;-75
2024/04/02 05:26:17;;;;;;;1.50;1.07;;;9.70;99.90;;;;;;5115106;28;20174;-75
2024/04/02 05:28:43;;;;;;;1.10;0.60;;;9.70;99.90;;;;;;5115181;28;20566;-74
2024/04/02 05:31:09;;;;;;;1.07;0.63;;;9.60;99.90;;;;;;5114880;28;20550;-75
2024/04/02 05:33:35;;;;;;;0.97;0.70;;;9.60;99.90;;;;;;5115145;28;20178;-74
2024/04/02 05:36:01;;;;;;;1.50;0.90;;;9.70;99.90;;;;;;5114718;28;20798;-74
2024/04/02 05:38:27;;;;;;;0.77;0.57;;;9.80;99.90;;;;;;5114749;28;20166;-74
2024/04/02 05:40:52;;;;;;;0.90;0.60;;;9.90;99.90;;;;;;5114841;28;20467;-74
2024/04/02 05:43:18;;;;;;;0.90;0.70;;;10.00;99.90;;;;;;5114862;28;20459;-75
2024/04/02 05:45:44;;;;;;;1.63;0.70;;;10.00;99.90;;;;;;5114583;28;20168;-74
2024/04/02 05:48:09;;;;;;;4.20;0.70;;;10.20;99.90;;;;;;5114428;28;20210;-76
2024/04/02 05:50:35;;;;;;;1.00;0.63;;;10.20;99.90;;;;;;5114855;28;20172;-74
2024/04/02 05:53:01;;;;;;;0.90;0.70;;;10.10;99.90;;;;;;5114452;28;20583;-74
2024/04/02 05:55:27;;;;;;;1.33;0.67;;;10.00;99.90;;;;;;5113057;28;20209;-75
2024/04/02 05:57:55;;;;;;;2.40;1.20;;;10.10;99.90;;;;;;5114470;28;20448;-74
2024/04/02 06:00:21;;;;;;;1.27;0.60;;;9.90;99.90;;;;;;5114091;28;20200;-73
2024/04/02 06:02:46;;;;;;;2.00;0.90;;;9.90;99.90;;;;;;5114253;28;20399;-74
2024/04/02 06:05:12;;;;;;;2.37;0.73;;;9.90;99.90;;;;;;5114438;28;20763;-73
2024/04/02 06:07:37;;;;;;;2.13;0.70;;;9.90;99.90;;;;;;5114074;28;20243;-73
2024/04/02 06:10:03;;;;;;;0.90;0.70;;;9.90;99.90;;;;;;5114117;28;20202;-74
2024/04/02 06:12:29;;;;;;;0.93;0.70;;;10.00;99.90;;;;;;5114024;28;20545;-74
2024/04/02 06:14:56;;;;;;;0.90;0.67;;;9.90;99.90;;;;;;5114055;28;20179;-74
2024/04/02 06:17:21;;;;;;;2.17;1.00;;;10.00;99.90;;;;;;5113946;28;20649;-74
2024/04/02 06:19:47;;;;;;;1.20;0.70;;;10.00;99.90;;;;;;5113884;28;20464;-75
2024/04/02 06:22:12;;;;;;;1.60;0.80;;;10.10;99.90;;;;;;5113801;28;20216;-73
2024/04/02 06:24:38;;;;;;;1.20;0.80;;;10.20;99.90;;;;;;5113737;28;20210;-74
2024/04/02 06:27:04;;;;;;;4.20;0.90;;;10.10;99.90;;;;;;5113722;28;20162;-73
2024/04/02 06:29:29;;;;;;;4.50;0.83;;;10.30;99.90;;;;;;5113221;28;20212;-74
2024/04/02 06:31:56;;;;;;;1.93;1.00;;;10.50;99.90;;;;;;5112690;28;20409;-72
2024/04/02 06:34:21;;;;;;;3.83;0.70;;;10.60;99.90;;;;;;5113606;28;20175;-76
2024/04/02 06:36:47;;;;;;;1.90;0.67;;;10.80;99.90;;;;;;5113530;28;20944;-74
2024/04/02 06:39:12;;;;;;;1.20;0.70;;;10.80;99.90;;;;;;5113523;28;20189;-73
2024/04/02 06:41:38;;;;;;;0.80;0.60;;;10.70;99.90;;;;;;5113441;28;20161;-72
2024/04/02 06:44:04;;;;;;;0.70;0.40;;;10.70;99.90;;;;;;5113405;27;20167;-73
2024/04/02 06:46:29;;;;;;;0.80;0.60;;;10.80;99.90;;;;;;5113325;28;20255;-73
2024/04/02 06:48:56;;;;;;;1.27;1.00;;;10.70;99.90;;;;;;5113211;28;20583;-73
2024/04/02 06:51:22;;;;;;;1.30;0.87;;;10.70;99.90;;;;;;5113417;28;20649;-73
2024/04/02 06:53:48;;;;;;;1.10;0.70;;;10.70;99.90;;;;;;5113222;28;20409;-73
2024/04/02 06:56:13;;;;;;;1.40;0.70;;;10.60;99.90;;;;;;5114521;28;20184;-74
2024/04/02 06:58:39;;;;;;;5.60;4.10;;;10.60;99.90;;;;;;5113257;28;20184;-73
2024/04/02 07:01:04;;;;;;;2.70;1.57;;;10.70;99.90;;;;;;5113043;28;20283;-73
2024/04/02 07:03:30;;;;;;;11.33;9.90;;;10.80;99.90;;;;;;5113086;28;20170;-74
2024/04/02 07:05:56;;;;;;;4.33;3.60;;;10.60;99.90;;;;;;5111846;28;20168;-74
2024/04/02 07:08:25;;;;;;;1.87;1.13;;;10.40;99.90;;;;;;5112753;28;20180;-74
2024/04/02 07:10:58;;;;;;;2.77;2.47;;;10.10;99.90;;;;;;5112967;28;20172;-74
2024/04/02 07:13:25;;;;;;;1.27;0.90;;;10.10;99.90;;;;;;5112961;28;20408;-74
2024/04/02 07:15:51;;;;;;;1.03;0.57;;;10.20;99.90;;;;;;5111826;28;20423;-75
2024/04/02 07:18:16;;;;;;;2.47;1.03;;;10.20;99.90;;;;;;5112789;28;20490;-74
2024/04/02 07:20:42;;;;;;;1.23;0.67;;;10.40;99.90;;;;;;5112801;28;20218;-74
2024/04/02 07:23:08;;;;;;;1.60;1.13;;;10.30;99.90;;;;;;5112725;28;20175;-74
2024/04/02 07:25:33;;;;;;;1.30;1.17;;;10.50;99.90;;;;;;5112843;28;20836;-74
2024/04/02 07:27:59;;;;;;;8.37;7.57;;;10.50;99.90;;;;;;5113045;28;20508;-73
2024/04/02 07:30:24;;;;;;;9.57;8.60;;;10.70;99.90;;;;;;5112670;28;20683;-74
2024/04/02 07:32:51;;;;;;;5.30;4.07;;;10.80;99.90;;;;;;5112817;28;20187;-74
2024/04/02 07:35:17;;;;;;;11.50;7.30;;;10.70;99.90;;;;;;5112715;28;20168;-73
2024/04/02 07:37:43;;;;;;;54.13;38.40;;;10.80;99.90;;;;;;5112768;28;20449;-73
2024/04/02 07:40:09;;;;;;;40.77;27.20;;;10.70;99.90;;;;;;5112457;28;20792;-75
2024/04/02 07:42:34;;;;;;;10.07;6.40;;;10.70;99.90;;;;;;5111753;28;20163;-75
2024/04/02 07:45:00;;;;;;;4.20;2.33;;;10.90;99.90;;;;;;5112569;28;20401;-73
2024/04/02 07:47:26;;;;;;;26.53;17.50;;;10.90;99.90;;;;;;5112835;28;20248;-74
2024/04/02 07:49:52;;;;;;;3.27;2.20;;;11.00;99.90;;;;;;5112403;27;20188;-73
2024/04/02 07:52:17;;;;;;;3.70;2.53;;;11.10;99.90;;;;;;5112595;28;20168;-73
2024/04/02 07:54:43;;;;;;;3.80;1.10;;;11.00;99.90;;;;;;5112619;28;20421;-73
2024/04/02 07:57:09;;;;;;;1.63;0.97;;;10.90;99.90;;;;;;5112511;28;20282;-74
2024/04/02 07:59:34;;;;;;;10.10;8.33;;;10.90;99.90;;;;;;5112568;28;20192;-74
2024/04/02 08:02:00;;;;;;;2.03;1.00;;;11.10;99.90;;;;;;5112491;28;20173;-74
2024/04/02 08:04:25;;;;;;;9.30;8.50;;;11.20;99.90;;;;;;5112877;28;20649;-74
2024/04/02 08:06:52;;;;;;;2.80;2.37;;;11.40;99.90;;;;;;5111041;28;20588;-74
2024/04/02 08:09:18;;;;;;;3.80;1.30;;;11.80;99.90;;;;;;5112431;28;20241;-74
2024/04/02 08:11:43;;;;;;;1.60;0.80;;;12.00;99.90;;;;;;5112771;28;20418;-73
2024/04/02 08:14:10;;;;;;;1.90;0.97;;;11.80;99.90;;;;;;5113129;28;20160;-74
2024/04/02 08:16:36;;;;;;;2.13;1.20;;;11.70;99.90;;;;;;5113772;28;20181;-74
2024/04/02 08:19:01;;;;;;;6.13;1.80;;;11.90;99.90;;;;;;5114443;28;20947;-73
2024/04/02 08:21:27;;;;;;;2.70;1.10;;;12.10;99.90;;;;;;5114986;28;20249;-73
2024/04/02 08:23:53;;;;;;;1.47;1.00;;;12.20;99.90;;;;;;5115155;28;20175;-74
2024/04/02 08:26:22;;;;;;;1.63;0.80;;;12.20;99.90;;;;;;5114304;28;20564;-75
2024/04/02 08:28:48;;;;;;;3.70;1.10;;;12.20;99.90;;;;;;5112865;28;20287;-74
2024/04/02 08:31:13;;;;;;;2.87;1.10;;;12.00;99.90;;;;;;5112702;28;20447;-75
2024/04/02 08:33:39;;;;;;;2.60;1.10;;;12.30;99.90;;;;;;5112672;28;20306;-72
2024/04/02 08:36:05;;;;;;;3.03;1.50;;;12.30;99.90;;;;;;5112373;28;20216;-74
2024/04/02 08:38:30;;;;;;;3.27;1.47;;;12.30;99.90;;;;;;5112493;28;20268;-74
2024/04/02 08:41:03;;;;;;;3.10;1.10;;;12.50;99.90;;;;;;5112089;28;20168;-73
2024/04/02 08:43:30;;;;;;;1.43;0.80;;;12.50;99.90;;;;;;5112344;28;20146;-73
2024/04/02 08:45:58;;;;;;;5.50;1.23;;;12.30;99.90;;;;;;5111984;28;20404;-74
2024/04/02 08:48:25;;;;;;;3.37;1.37;;;12.20;99.90;;;;;;5111910;28;20440;-74
2024/04/02 08:50:52;;;;;;;1.00;0.70;;;12.10;99.90;;;;;;5112155;28;20408;-73
2024/04/02 08:53:18;;;;;;;4.53;0.87;;;12.10;99.90;;;;;;5113542;28;20911;-73
2024/04/02 08:55:46;;;;;;;1.70;1.20;;;12.10;99.90;;;;;;5115520;28;20417;-74
2024/04/02 08:58:12;;;;;;;1.20;0.90;;;12.20;99.90;;;;;;5115854;28;20259;-73
2024/04/02 09:00:39;;;;;;;2.23;0.97;;;12.40;99.90;;;;;;5115433;28;20413;-74
2024/04/02 09:03:07;;;;;;;3.97;1.30;;;12.30;99.90;;;;;;5115432;28;20400;-74
2024/04/02 09:05:32;;;;;;;6.13;1.20;;;12.10;99.90;;;;;;5114196;28;20486;-73
2024/04/02 09:07:58;;;;;;;2.07;1.03;;;12.10;99.90;;;;;;5115275;28;20514;-73
2024/04/02 09:10:23;;;;;;;4.43;1.00;;;12.20;99.90;;;;;;5114194;28;20196;-73
2024/04/02 09:12:49;;;;;;;2.13;0.80;;;12.20;99.90;;;;;;5115379;28;20166;-72
2024/04/02 09:15:15;;;;;;;3.83;1.13;;;12.20;99.90;;;;;;5115343;28;20231;-74
2024/04/02 09:17:41;;;;;;;2.70;1.20;;;12.40;99.90;;;;;;5115322;27;20205;-74
2024/04/02 09:20:07;;;;;;;3.00;1.00;;;12.20;99.90;;;;;;5113872;28;20433;-75
2024/04/02 09:22:33;;;;;;;2.00;1.07;;;12.20;99.90;;;;;;5115227;28;20405;-74
2024/04/02 09:24:58;;;;;;;2.63;1.00;;;12.50;99.90;;;;;;5115075;28;20482;-74
2024/04/02 09:27:24;;;;;;;2.60;1.03;;;12.90;99.90;;;;;;5115164;28;20180;-74
2024/04/02 09:29:51;;;;;;;3.40;0.97;;;13.10;99.90;;;;;;5114933;28;20266;-74
2024/04/02 09:32:18;;;;;;;5.13;1.50;;;13.30;99.90;;;;;;5114999;27;20196;-74
2024/04/02 09:34:45;;;;;;;3.97;1.20;;;13.40;99.90;;;;;;5114687;28;20412;-74
2024/04/02 09:37:23;;;;;;;1.77;0.80;;;13.60;99.90;;;;;;5114778;28;20472;-74
2024/04/02 09:39:50;;;;;;;1.83;1.17;;;13.30;99.90;;;;;;5114779;28;20429;-74
2024/04/02 09:42:16;;;;;;;1.90;0.70;;;13.20;99.90;;;;;;5114906;28;20492;-74
2024/04/02 09:44:45;;;;;;;4.50;1.00;;;13.30;99.90;;;;;;5113506;28;20952;-74
2024/04/02 09:47:12;;;;;;;2.13;1.03;;;13.50;99.90;;;;;;5114749;27;20673;-74
2024/04/02 09:49:39;;;;;;;3.40;0.90;;;13.40;99.90;;;;;;5114732;28;20494;-74
2024/04/02 09:52:06;;;;;;;3.43;1.20;;;13.20;99.90;;;;;;5114632;28;20475;-74
2024/04/02 09:54:35;;;;;;;3.83;1.03;;;13.20;99.90;;;;;;5114702;28;20914;-74
2024/04/02 09:57:03;;;;;;;4.37;2.00;;;13.60;99.90;;;;;;5114336;28;20496;-74
2024/04/02 09:59:28;;;;;;;2.53;1.03;;;13.80;99.90;;;;;;5114380;28;20429;-74
2024/04/02 10:01:56;;;;;;;2.90;1.20;;;13.70;99.90;;;;;;5115148;28;20406;-73
2024/04/02 10:04:22;;;;;;;4.00;0.93;;;13.90;99.90;;;;;;5113759;28;20190;-74
2024/04/02 10:06:48;;;;;;;5.67;1.00;;;13.90;99.90;;;;;;5114327;28;20911;-74
2024/04/02 10:09:15;;;;;;;3.87;1.17;;;14.00;99.90;;;;;;5114144;28;20982;-75
2024/04/02 10:11:43;;;;;;;2.10;1.07;;;14.00;99.90;;;;;;5114603;28;20414;-75
2024/04/02 10:14:12;;;;;;;2.17;0.90;;;14.20;99.90;;;;;;5114292;28;20493;-73
2024/04/02 10:16:45;;;;;;;1.50;0.93;;;14.40;99.90;;;;;;5114408;28;20463;-75
2024/04/02 10:19:28;;;;;;;2.60;1.10;;;14.70;99.90;;;;;;5114187;28;20421;-75
2024/04/02 10:21:55;;;;;;;2.63;1.23;;;14.80;99.30;;;;;;5114210;28;20408;-75
2024/04/02 10:24:25;;;;;;;2.23;1.30;;;14.90;98.90;;;;;;5113958;28;20767;-75
2024/04/02 10:26:51;;;;;;;2.60;1.00;;;15.00;98.90;;;;;;5114658;28;20192;-75
2024/04/02 10:29:33;;;;;;;2.37;0.80;;;15.30;97.80;;;;;;5115212;28;20462;-74
2024/04/02 10:31:59;;;;;;;2.67;1.00;;;15.20;97.10;;;;;;5116201;28;20458;-74
2024/04/02 10:34:25;;;;;;;1.93;1.23;;;15.00;97.40;;;;;;5114826;28;20405;-74
2024/04/02 10:36:51;;;;;;;3.40;1.17;;;15.10;97.60;;;;;;5113431;28;20899;-74
2024/04/02 10:39:17;;;;;;;1.80;1.00;;;15.30;97.20;;;;;;5113160;28;20533;-75
2024/04/02 10:41:45;;;;;;;3.10;1.17;;;15.00;96.90;;;;;;5113568;28;20475;-76
2024/04/02 10:44:11;;;;;;;2.97;1.20;;;14.40;97.20;;;;;;5113626;28;20163;-75
2024/04/02 10:46:40;;;;;;;3.00;1.07;;;14.40;97.70;;;;;;5113378;28;20438;-75
2024/04/02 10:49:05;;;;;;;4.43;1.03;;;14.30;97.90;;;;;;5113227;28;20507;-75
2024/04/02 10:51:32;;;;;;;2.77;1.00;;;14.20;98.30;;;;;;5113316;28;20442;-76
2024/04/02 10:53:58;;;;;;;2.13;0.70;;;14.70;99.90;;;;;;5111932;28;20543;-76
2024/04/02 10:56:26;;;;;;;2.80;0.80;;;15.20;98.80;;;;;;5113038;28;20457;-75
2024/04/02 10:58:52;;;;;;;1.10;0.60;;;15.00;98.20;;;;;;5113053;28;21173;-75
2024/04/02 11:01:19;;;;;;;1.90;0.67;;;14.90;98.60;;;;;;5113022;28;20409;-75
2024/04/02 11:03:47;;;;;;;2.10;0.53;;;15.40;97.70;;;;;;5112939;28;20504;-75
2024/04/02 11:06:13;;;;;;;2.03;1.00;;;16.20;97.40;;;;;;5113010;28;20953;-76
2024/04/02 11:08:40;;;;;;;4.07;0.87;;;17.40;95.50;;;;;;5112741;28;20446;-76
2024/04/02 11:11:05;;;;;;;2.70;0.97;;;17.60;95.60;;;;;;5112935;27;20402;-75
2024/04/02 11:13:31;;;;;;;2.40;1.10;;;17.80;95.10;;;;;;5112684;28;20805;-75
2024/04/02 11:15:57;;;;;;;1.50;0.80;;;18.40;94.40;;;;;;5112544;28;20509;-74
2024/04/02 11:18:24;;;;;;;4.30;1.00;;;18.00;93.90;;;;;;5112278;28;20734;-75
2024/04/02 11:21:00;;;;;;;1.90;0.80;;;17.50;95.50;;;;;;5112725;28;20410;-76
2024/04/02 11:26:15;;;;;;;2.23;0.90;;;15.20;99.90;;;;;;5112678;28;20429;-75
2024/04/02 11:28:44;;;;;;;3.77;1.03;;;14.50;99.90;;;;;;5113136;28;20425;-76
2024/04/02 11:31:11;;;;;;;2.03;1.10;;;14.10;99.90;;;;;;5113141;28;20401;-75
2024/04/02 11:33:43;;;;;;;2.67;1.07;;;14.00;99.90;;;;;;5112918;28;20479;-76
2024/04/02 11:36:09;;;;;;;3.50;1.10;;;15.50;99.90;;;;;;5112853;28;20388;-75
2024/04/02 11:38:38;;;;;;;1.53;0.90;;;16.60;99.30;;;;;;5112647;28;20423;-75
2024/04/02 11:41:07;;;;;;;2.30;1.10;;;17.20;97.60;;;;;;5112781;28;20459;-75
2024/04/02 11:43:33;;;;;;;2.57;1.13;;;18.40;95.00;;;;;;5112760;28;20432;-73
2024/04/02 11:46:02;;;;;;;4.20;0.97;;;19.90;93.00;;;;;;5112589;28;20410;-74
2024/04/02 11:48:31;;;;;;;3.27;1.80;;;20.10;90.10;;;;;;5113022;28;20187;-75
2024/04/02 11:50:57;;;;;;;3.10;1.30;;;19.40;87.90;;;;;;5112749;28;20421;-74
2024/04/02 11:53:23;;;;;;;3.23;1.50;;;19.30;89.70;;;;;;5112553;28;20401;-74
2024/04/02 11:55:50;;;;;;;2.23;1.00;;;20.50;87.30;;;;;;5112661;28;20398;-75
2024/04/02 12:01:01;;;;;;;2.63;1.13;;;19.20;89.20;;;;;;5112845;28;20403;-74
2024/04/02 12:03:26;;;;;;;2.30;1.20;;;18.10;91.10;;;;;;5113424;28;20391;-74
2024/04/02 12:05:52;;;;;;;2.03;1.00;;;17.80;90.70;;;;;;5113939;28;20700;-74
2024/04/02 12:08:17;;;;;;;3.73;1.20;;;18.70;90.60;;;;;;5112927;28;20707;-75
2024/04/02 12:10:43;;;;;;;3.33;1.20;;;19.50;90.10;;;;;;5112618;28;20165;-75
2024/04/02 12:13:08;;;;;;;3.40;0.90;;;21.00;86.40;;;;;;5113039;28;20247;-75
2024/04/02 12:15:34;;;;;;;1.67;1.10;;;21.00;82.60;;;;;;5113230;28;20169;-75
2024/04/02 12:18:01;;;;;;;1.90;0.80;;;21.00;82.50;;;;;;5112443;28;20196;-75
2024/04/02 12:20:26;;;;;;;2.60;0.97;;;21.40;81.50;;;;;;5112452;28;20290;-75
2024/04/02 12:22:52;;;;;;;4.00;1.60;;;22.20;80.20;;;;;;5112328;28;20913;-75
2024/04/02 12:25:18;;;;;;;1.70;1.07;;;22.00;75.50;;;;;;5112661;28;20169;-76
2024/04/02 12:27:43;;;;;;;2.20;0.90;;;21.90;78.60;;;;;;5113353;28;20173;-75
2024/04/02 12:30:09;;;;;;;1.70;0.83;;;22.30;75.70;;;;;;5116155;28;20184;-75
2024/04/02 12:32:35;;;;;;;1.60;0.80;;;22.30;72.30;;;;;;5116518;28;20173;-75
2024/04/02 12:35:00;;;;;;;1.50;1.00;;;22.50;73.00;;;;;;5116183;28;20398;-75
2024/04/02 12:37:26;;;;;;;2.03;0.70;;;21.70;75.20;;;;;;5116039;28;20181;-75
2024/04/02 12:39:51;;;;;;;2.03;0.90;;;21.40;75.60;;;;;;5115879;28;20187;-75
2024/04/02 12:42:19;;;;;;;1.57;0.90;;;20.10;75.30;;;;;;5116857;28;20167;-75
2024/04/02 12:44:45;;;;;;;2.07;1.13;;;18.00;80.70;;;;;;5117051;28;20248;-76
2024/04/02 12:47:11;;;;;;;2.63;1.00;;;17.10;87.00;;;;;;5116404;28;20489;-75
2024/04/02 12:49:41;;;;;;;1.10;0.60;;;16.90;92.10;;;;;;5116106;28;20991;-76